sensor_id;sensor_type;location;lat;lon;timestamp;P1;durP1;ratioP1;P2;durP2;ratioP2
27622;SDS011;15041;45.334;5.622;2023-11-21T00:00:14;9.03;;;5.30;;
27622;SDS011;15041;45.334;5.622;2023-11-21T00:02:41;6.33;;;4.57;;
27622;SDS011;15041;45.334;5.622;2023-11-21T00:05:10;12.87;;;5.10;;
27622;SDS011;15041;45.334;5.622;2023-11-21T00:07:39;9.13;;;5.20;;
27622;SDS011;15041;45.334;5.622;2023-11-21T00:10:09;7.10;;;5.10;;
27622;SDS011;15041;45.334;5.622;2023-11-21T00:12:37;9.83;;;5.03;;
27622;SDS011;15041;45.334;5.622;2023-11-21T00:15:07;7.40;;;4.60;;
27622;SDS011;15041;45.334;5.622;2023-11-21T00:17:37;6.97;;;4.10;;
27622;SDS011;15041;45.334;5.622;2023-11-21T00:20:05;6.37;;;3.60;;
27622;SDS011;15041;45.334;5.622;2023-11-21T00:22:33;6.63;;;3.90;;
27622;SDS011;15041;45.334;5.622;2023-11-21T00:25:01;5.83;;;4.30;;
27622;SDS011;15041;45.334;5.622;2023-11-21T00:27:30;8.77;;;4.10;;
27622;SDS011;15041;45.334;5.622;2023-11-21T00:29:57;7.00;;;3.57;;
27622;SDS011;15041;45.334;5.622;2023-11-21T00:32:24;4.47;;;3.03;;
27622;SDS011;15041;45.334;5.622;2023-11-21T00:34:52;6.80;;;3.03;;
27622;SDS011;15041;45.334;5.622;2023-11-21T00:37:20;8.63;;;3.20;;
27622;SDS011;15041;45.334;5.622;2023-11-21T00:39:49;7.97;;;2.87;;
27622;SDS011;15041;45.334;5.622;2023-11-21T00:42:16;7.43;;;3.57;;
27622;SDS011;15041;45.334;5.622;2023-11-21T00:44:45;8.10;;;3.10;;
27622;SDS011;15041;45.334;5.622;2023-11-21T00:47:13;5.47;;;3.17;;
27622;SDS011;15041;45.334;5.622;2023-11-21T00:49:40;5.30;;;2.70;;
27622;SDS011;15041;45.334;5.622;2023-11-21T00:52:08;6.20;;;3.03;;
27622;SDS011;15041;45.334;5.622;2023-11-21T00:54:35;4.80;;;3.27;;
27622;SDS011;15041;45.334;5.622;2023-11-21T00:57:02;4.50;;;2.87;;
27622;SDS011;15041;45.334;5.622;2023-11-21T00:59:29;5.77;;;2.70;;
27622;SDS011;15041;45.334;5.622;2023-11-21T01:01:59;4.20;;;3.60;;
27622;SDS011;15041;45.334;5.622;2023-11-21T01:04:27;6.60;;;3.03;;
27622;SDS011;15041;45.334;5.622;2023-11-21T01:06:54;4.13;;;2.70;;
27622;SDS011;15041;45.334;5.622;2023-11-21T01:09:21;3.30;;;2.47;;
27622;SDS011;15041;45.334;5.622;2023-11-21T01:11:49;6.73;;;2.57;;
27622;SDS011;15041;45.334;5.622;2023-11-21T01:14:17;14.17;;;3.53;;
27622;SDS011;15041;45.334;5.622;2023-11-21T01:16:44;3.60;;;2.27;;
27622;SDS011;15041;45.334;5.622;2023-11-21T01:19:13;4.10;;;2.40;;
27622;SDS011;15041;45.334;5.622;2023-11-21T01:21:40;5.30;;;2.43;;
27622;SDS011;15041;45.334;5.622;2023-11-21T01:24:07;7.93;;;2.27;;
27622;SDS011;15041;45.334;5.622;2023-11-21T01:26:35;5.83;;;2.07;;
27622;SDS011;15041;45.334;5.622;2023-11-21T01:29:03;4.53;;;2.47;;
27622;SDS011;15041;45.334;5.622;2023-11-21T01:31:30;8.63;;;3.67;;
27622;SDS011;15041;45.334;5.622;2023-11-21T01:34:04;5.77;;;4.43;;
27622;SDS011;15041;45.334;5.622;2023-11-21T01:36:33;6.70;;;5.23;;
27622;SDS011;15041;45.334;5.622;2023-11-21T01:39:01;9.27;;;5.50;;
27622;SDS011;15041;45.334;5.622;2023-11-21T01:41:30;6.83;;;5.37;;
27622;SDS011;15041;45.334;5.622;2023-11-21T01:43:57;7.33;;;5.07;;
27622;SDS011;15041;45.334;5.622;2023-11-21T01:46:24;8.73;;;4.40;;
27622;SDS011;15041;45.334;5.622;2023-11-21T01:48:51;8.97;;;4.87;;
27622;SDS011;15041;45.334;5.622;2023-11-21T01:51:20;5.83;;;4.80;;
27622;SDS011;15041;45.334;5.622;2023-11-21T01:53:49;7.33;;;4.63;;
27622;SDS011;15041;45.334;5.622;2023-11-21T01:56:17;7.60;;;5.10;;
27622;SDS011;15041;45.334;5.622;2023-11-21T01:58:44;10.13;;;4.87;;
27622;SDS011;15041;45.334;5.622;2023-11-21T02:01:12;9.47;;;5.27;;
27622;SDS011;15041;45.334;5.622;2023-11-21T02:03:39;7.20;;;5.20;;
27622;SDS011;15041;45.334;5.622;2023-11-21T02:06:07;6.83;;;5.13;;
27622;SDS011;15041;45.334;5.622;2023-11-21T02:08:35;6.43;;;4.90;;
27622;SDS011;15041;45.334;5.622;2023-11-21T02:11:05;8.23;;;4.53;;
27622;SDS011;15041;45.334;5.622;2023-11-21T02:13:32;5.87;;;4.40;;
27622;SDS011;15041;45.334;5.622;2023-11-21T02:16:01;6.90;;;5.03;;
27622;SDS011;15041;45.334;5.622;2023-11-21T02:18:30;8.90;;;4.57;;
27622;SDS011;15041;45.334;5.622;2023-11-21T02:20:57;12.00;;;4.47;;
27622;SDS011;15041;45.334;5.622;2023-11-21T02:23:29;5.77;;;4.10;;
27622;SDS011;15041;45.334;5.622;2023-11-21T02:25:56;6.40;;;4.30;;
27622;SDS011;15041;45.334;5.622;2023-11-21T02:28:24;5.30;;;4.20;;
27622;SDS011;15041;45.334;5.622;2023-11-21T02:30:52;4.90;;;3.73;;
27622;SDS011;15041;45.334;5.622;2023-11-21T02:33:21;7.87;;;6.37;;
27622;SDS011;15041;45.334;5.622;2023-11-21T02:35:48;8.13;;;4.70;;
27622;SDS011;15041;45.334;5.622;2023-11-21T02:38:19;4.30;;;3.70;;
27622;SDS011;15041;45.334;5.622;2023-11-21T02:40:48;5.27;;;3.63;;
27622;SDS011;15041;45.334;5.622;2023-11-21T02:43:15;6.83;;;3.73;;
27622;SDS011;15041;45.334;5.622;2023-11-21T02:45:42;4.13;;;3.40;;
27622;SDS011;15041;45.334;5.622;2023-11-21T02:48:10;5.93;;;3.53;;
27622;SDS011;15041;45.334;5.622;2023-11-21T02:50:37;7.77;;;4.90;;
27622;SDS011;15041;45.334;5.622;2023-11-21T02:53:04;6.40;;;4.53;;
27622;SDS011;15041;45.334;5.622;2023-11-21T02:55:32;5.73;;;4.87;;
27622;SDS011;15041;45.334;5.622;2023-11-21T02:58:03;7.73;;;4.93;;
27622;SDS011;15041;45.334;5.622;2023-11-21T03:00:30;4.87;;;4.33;;
27622;SDS011;15041;45.334;5.622;2023-11-21T03:02:58;5.33;;;4.37;;
27622;SDS011;15041;45.334;5.622;2023-11-21T03:05:25;5.97;;;4.47;;
27622;SDS011;15041;45.334;5.622;2023-11-21T03:07:54;9.20;;;4.63;;
27622;SDS011;15041;45.334;5.622;2023-11-21T03:10:21;6.03;;;4.60;;
27622;SDS011;15041;45.334;5.622;2023-11-21T03:12:49;9.20;;;4.23;;
27622;SDS011;15041;45.334;5.622;2023-11-21T03:15:17;7.10;;;4.50;;
27622;SDS011;15041;45.334;5.622;2023-11-21T03:17:44;9.40;;;5.30;;
27622;SDS011;15041;45.334;5.622;2023-11-21T03:20:14;10.17;;;5.33;;
27622;SDS011;15041;45.334;5.622;2023-11-21T03:22:41;7.57;;;5.33;;
27622;SDS011;15041;45.334;5.622;2023-11-21T03:25:09;11.03;;;5.87;;
27622;SDS011;15041;45.334;5.622;2023-11-21T03:27:37;8.67;;;3.97;;
27622;SDS011;15041;45.334;5.622;2023-11-21T03:30:07;8.70;;;4.07;;
27622;SDS011;15041;45.334;5.622;2023-11-21T03:32:38;5.70;;;3.27;;
27622;SDS011;15041;45.334;5.622;2023-11-21T03:35:06;6.03;;;3.70;;
27622;SDS011;15041;45.334;5.622;2023-11-21T03:37:33;9.20;;;6.53;;
27622;SDS011;15041;45.334;5.622;2023-11-21T03:40:00;9.17;;;6.07;;
27622;SDS011;15041;45.334;5.622;2023-11-21T03:42:29;6.27;;;4.47;;
27622;SDS011;15041;45.334;5.622;2023-11-21T03:44:56;8.50;;;4.63;;
27622;SDS011;15041;45.334;5.622;2023-11-21T03:47:24;5.23;;;4.00;;
27622;SDS011;15041;45.334;5.622;2023-11-21T03:49:54;9.10;;;5.10;;
27622;SDS011;15041;45.334;5.622;2023-11-21T03:52:21;7.13;;;3.87;;
27622;SDS011;15041;45.334;5.622;2023-11-21T03:54:48;9.27;;;5.20;;
27622;SDS011;15041;45.334;5.622;2023-11-21T03:57:15;8.10;;;4.50;;
27622;SDS011;15041;45.334;5.622;2023-11-21T03:59:42;6.77;;;4.13;;
27622;SDS011;15041;45.334;5.622;2023-11-21T04:02:10;7.93;;;4.10;;
27622;SDS011;15041;45.334;5.622;2023-11-21T04:04:37;5.30;;;4.13;;
27622;SDS011;15041;45.334;5.622;2023-11-21T04:07:07;6.80;;;5.10;;
27622;SDS011;15041;45.334;5.622;2023-11-21T04:09:34;9.40;;;4.40;;
27622;SDS011;15041;45.334;5.622;2023-11-21T04:12:01;4.63;;;4.03;;
27622;SDS011;15041;45.334;5.622;2023-11-21T04:14:28;7.53;;;5.00;;
27622;SDS011;15041;45.334;5.622;2023-11-21T04:16:56;16.43;;;5.40;;
27622;SDS011;15041;45.334;5.622;2023-11-21T04:19:23;9.47;;;5.27;;
27622;SDS011;15041;45.334;5.622;2023-11-21T04:21:50;10.30;;;4.77;;
27622;SDS011;15041;45.334;5.622;2023-11-21T04:24:18;11.43;;;4.97;;
27622;SDS011;15041;45.334;5.622;2023-11-21T04:26:45;7.90;;;4.23;;
27622;SDS011;15041;45.334;5.622;2023-11-21T04:29:13;6.83;;;4.33;;
27622;SDS011;15041;45.334;5.622;2023-11-21T04:31:40;8.03;;;4.50;;
27622;SDS011;15041;45.334;5.622;2023-11-21T04:34:08;11.57;;;4.80;;
27622;SDS011;15041;45.334;5.622;2023-11-21T04:36:35;6.83;;;4.17;;
27622;SDS011;15041;45.334;5.622;2023-11-21T04:39:02;6.67;;;4.07;;
27622;SDS011;15041;45.334;5.622;2023-11-21T04:41:31;7.97;;;4.77;;
27622;SDS011;15041;45.334;5.622;2023-11-21T04:43:58;6.60;;;5.20;;
27622;SDS011;15041;45.334;5.622;2023-11-21T04:46:26;4.17;;;3.77;;
27622;SDS011;15041;45.334;5.622;2023-11-21T04:48:53;5.17;;;4.00;;
27622;SDS011;15041;45.334;5.622;2023-11-21T04:51:20;5.87;;;4.33;;
27622;SDS011;15041;45.334;5.622;2023-11-21T04:53:47;5.67;;;3.80;;
27622;SDS011;15041;45.334;5.622;2023-11-21T04:56:14;7.03;;;3.97;;
27622;SDS011;15041;45.334;5.622;2023-11-21T04:58:44;7.47;;;4.10;;
27622;SDS011;15041;45.334;5.622;2023-11-21T05:01:12;6.03;;;4.30;;
27622;SDS011;15041;45.334;5.622;2023-11-21T05:03:39;5.47;;;3.83;;
27622;SDS011;15041;45.334;5.622;2023-11-21T05:06:09;7.43;;;4.20;;
27622;SDS011;15041;45.334;5.622;2023-11-21T05:08:36;7.33;;;4.17;;
27622;SDS011;15041;45.334;5.622;2023-11-21T05:11:03;7.10;;;4.30;;
27622;SDS011;15041;45.334;5.622;2023-11-21T05:13:33;8.00;;;4.10;;
27622;SDS011;15041;45.334;5.622;2023-11-21T05:16:03;4.47;;;3.23;;
27622;SDS011;15041;45.334;5.622;2023-11-21T05:18:31;8.20;;;4.17;;
27622;SDS011;15041;45.334;5.622;2023-11-21T05:20:59;5.97;;;3.67;;
27622;SDS011;15041;45.334;5.622;2023-11-21T05:23:27;8.07;;;4.03;;
27622;SDS011;15041;45.334;5.622;2023-11-21T05:25:54;7.50;;;4.90;;
27622;SDS011;15041;45.334;5.622;2023-11-21T05:28:22;6.00;;;3.70;;
27622;SDS011;15041;45.334;5.622;2023-11-21T05:30:49;8.10;;;4.47;;
27622;SDS011;15041;45.334;5.622;2023-11-21T05:33:18;6.40;;;4.53;;
27622;SDS011;15041;45.334;5.622;2023-11-21T05:35:45;8.77;;;3.93;;
27622;SDS011;15041;45.334;5.622;2023-11-21T05:38:14;8.77;;;3.40;;
27622;SDS011;15041;45.334;5.622;2023-11-21T05:40:41;5.27;;;3.20;;
27622;SDS011;15041;45.334;5.622;2023-11-21T05:43:09;5.10;;;3.57;;
27622;SDS011;15041;45.334;5.622;2023-11-21T05:45:37;7.13;;;3.70;;
27622;SDS011;15041;45.334;5.622;2023-11-21T05:48:04;5.73;;;3.63;;
27622;SDS011;15041;45.334;5.622;2023-11-21T05:50:33;6.83;;;3.63;;
27622;SDS011;15041;45.334;5.622;2023-11-21T05:53:00;7.90;;;3.37;;
27622;SDS011;15041;45.334;5.622;2023-11-21T05:55:28;8.90;;;3.80;;
27622;SDS011;15041;45.334;5.622;2023-11-21T05:57:55;7.40;;;3.67;;
27622;SDS011;15041;45.334;5.622;2023-11-21T06:00:22;9.73;;;3.80;;
27622;SDS011;15041;45.334;5.622;2023-11-21T06:02:51;7.07;;;2.90;;
27622;SDS011;15041;45.334;5.622;2023-11-21T06:05:19;4.27;;;2.40;;
27622;SDS011;15041;45.334;5.622;2023-11-21T06:07:50;3.57;;;2.60;;
27622;SDS011;15041;45.334;5.622;2023-11-21T06:10:17;6.07;;;3.20;;
27622;SDS011;15041;45.334;5.622;2023-11-21T06:12:46;3.43;;;2.77;;
27622;SDS011;15041;45.334;5.622;2023-11-21T06:15:13;4.80;;;2.60;;
27622;SDS011;15041;45.334;5.622;2023-11-21T06:17:42;8.67;;;5.50;;
27622;SDS011;15041;45.334;5.622;2023-11-21T06:20:10;5.97;;;4.47;;
27622;SDS011;15041;45.334;5.622;2023-11-21T06:22:39;7.47;;;4.47;;
27622;SDS011;15041;45.334;5.622;2023-11-21T06:25:09;8.97;;;2.97;;
27622;SDS011;15041;45.334;5.622;2023-11-21T06:27:40;7.23;;;3.43;;
27622;SDS011;15041;45.334;5.622;2023-11-21T06:30:10;5.73;;;3.27;;
27622;SDS011;15041;45.334;5.622;2023-11-21T06:32:39;6.23;;;3.07;;
27622;SDS011;15041;45.334;5.622;2023-11-21T06:35:06;4.77;;;2.80;;
27622;SDS011;15041;45.334;5.622;2023-11-21T06:37:35;7.27;;;3.50;;
27622;SDS011;15041;45.334;5.622;2023-11-21T06:40:03;5.83;;;2.83;;
27622;SDS011;15041;45.334;5.622;2023-11-21T06:42:33;5.83;;;3.60;;
27622;SDS011;15041;45.334;5.622;2023-11-21T06:45:00;6.27;;;3.63;;
27622;SDS011;15041;45.334;5.622;2023-11-21T06:47:29;10.63;;;3.50;;
27622;SDS011;15041;45.334;5.622;2023-11-21T06:49:56;4.97;;;3.10;;
27622;SDS011;15041;45.334;5.622;2023-11-21T06:52:24;5.07;;;3.03;;
27622;SDS011;15041;45.334;5.622;2023-11-21T06:54:51;9.63;;;3.63;;
27622;SDS011;15041;45.334;5.622;2023-11-21T06:57:18;3.77;;;3.30;;
27622;SDS011;15041;45.334;5.622;2023-11-21T06:59:47;5.77;;;3.30;;
27622;SDS011;15041;45.334;5.622;2023-11-21T07:02:14;11.73;;;4.33;;
27622;SDS011;15041;45.334;5.622;2023-11-21T07:04:43;7.13;;;3.67;;
27622;SDS011;15041;45.334;5.622;2023-11-21T07:07:11;5.93;;;4.13;;
27622;SDS011;15041;45.334;5.622;2023-11-21T07:09:39;8.73;;;4.40;;
27622;SDS011;15041;45.334;5.622;2023-11-21T07:12:06;8.40;;;4.30;;
27622;SDS011;15041;45.334;5.622;2023-11-21T07:14:33;4.73;;;3.90;;
27622;SDS011;15041;45.334;5.622;2023-11-21T07:17:02;6.63;;;5.77;;
27622;SDS011;15041;45.334;5.622;2023-11-21T07:19:30;11.97;;;9.13;;
27622;SDS011;15041;45.334;5.622;2023-11-21T07:21:57;14.20;;;7.80;;
27622;SDS011;15041;45.334;5.622;2023-11-21T07:24:24;14.93;;;7.57;;
27622;SDS011;15041;45.334;5.622;2023-11-21T07:26:51;7.00;;;5.70;;
27622;SDS011;15041;45.334;5.622;2023-11-21T07:29:23;7.53;;;6.23;;
27622;SDS011;15041;45.334;5.622;2023-11-21T07:31:51;10.27;;;6.20;;
27622;SDS011;15041;45.334;5.622;2023-11-21T07:34:19;7.87;;;5.23;;
27622;SDS011;15041;45.334;5.622;2023-11-21T07:36:47;6.37;;;5.37;;
27622;SDS011;15041;45.334;5.622;2023-11-21T07:39:14;15.13;;;6.20;;
27622;SDS011;15041;45.334;5.622;2023-11-21T07:41:41;8.03;;;5.00;;
27622;SDS011;15041;45.334;5.622;2023-11-21T07:44:14;12.00;;;5.60;;
27622;SDS011;15041;45.334;5.622;2023-11-21T07:46:42;7.80;;;4.60;;
27622;SDS011;15041;45.334;5.622;2023-11-21T07:49:10;7.93;;;5.37;;
27622;SDS011;15041;45.334;5.622;2023-11-21T07:51:38;12.57;;;5.37;;
27622;SDS011;15041;45.334;5.622;2023-11-21T07:54:05;6.63;;;4.83;;
27622;SDS011;15041;45.334;5.622;2023-11-21T07:56:32;12.30;;;4.87;;
27622;SDS011;15041;45.334;5.622;2023-11-21T07:59:00;13.23;;;5.53;;
27622;SDS011;15041;45.334;5.622;2023-11-21T08:01:27;12.13;;;6.43;;
27622;SDS011;15041;45.334;5.622;2023-11-21T08:03:54;9.10;;;5.90;;
27622;SDS011;15041;45.334;5.622;2023-11-21T08:06:27;11.03;;;6.77;;
27622;SDS011;15041;45.334;5.622;2023-11-21T08:08:55;9.07;;;4.87;;
27622;SDS011;15041;45.334;5.622;2023-11-21T08:11:23;6.83;;;4.53;;
27622;SDS011;15041;45.334;5.622;2023-11-21T08:13:51;8.97;;;4.90;;
27622;SDS011;15041;45.334;5.622;2023-11-21T08:16:19;6.30;;;5.07;;
27622;SDS011;15041;45.334;5.622;2023-11-21T08:18:46;9.83;;;6.37;;
27622;SDS011;15041;45.334;5.622;2023-11-21T08:21:13;11.40;;;6.37;;
27622;SDS011;15041;45.334;5.622;2023-11-21T08:23:40;8.47;;;6.00;;
27622;SDS011;15041;45.334;5.622;2023-11-21T08:26:09;9.00;;;5.97;;
27622;SDS011;15041;45.334;5.622;2023-11-21T08:28:36;12.40;;;7.50;;
27622;SDS011;15041;45.334;5.622;2023-11-21T08:31:03;10.87;;;6.00;;
27622;SDS011;15041;45.334;5.622;2023-11-21T08:33:31;7.87;;;6.03;;
27622;SDS011;15041;45.334;5.622;2023-11-21T08:35:58;10.67;;;5.37;;
27622;SDS011;15041;45.334;5.622;2023-11-21T08:38:26;12.40;;;5.97;;
27622;SDS011;15041;45.334;5.622;2023-11-21T08:40:54;9.80;;;5.67;;
27622;SDS011;15041;45.334;5.622;2023-11-21T08:43:22;10.03;;;6.23;;
27622;SDS011;15041;45.334;5.622;2023-11-21T08:45:50;7.93;;;5.60;;
27622;SDS011;15041;45.334;5.622;2023-11-21T08:48:17;9.67;;;5.30;;
27622;SDS011;15041;45.334;5.622;2023-11-21T08:50:45;13.73;;;5.57;;
27622;SDS011;15041;45.334;5.622;2023-11-21T08:53:12;8.33;;;5.07;;
27622;SDS011;15041;45.334;5.622;2023-11-21T08:55:39;7.30;;;4.33;;
27622;SDS011;15041;45.334;5.622;2023-11-21T08:58:06;7.53;;;5.00;;
27622;SDS011;15041;45.334;5.622;2023-11-21T09:00:35;10.53;;;4.80;;
27622;SDS011;15041;45.334;5.622;2023-11-21T09:03:03;6.70;;;4.60;;
27622;SDS011;15041;45.334;5.622;2023-11-21T09:05:34;7.20;;;4.63;;
27622;SDS011;15041;45.334;5.622;2023-11-21T09:08:04;7.27;;;4.60;;
27622;SDS011;15041;45.334;5.622;2023-11-21T09:10:32;12.57;;;5.23;;
27622;SDS011;15041;45.334;5.622;2023-11-21T09:13:02;7.70;;;4.87;;
27622;SDS011;15041;45.334;5.622;2023-11-21T09:15:29;9.13;;;6.07;;
27622;SDS011;15041;45.334;5.622;2023-11-21T09:17:58;6.93;;;4.83;;
27622;SDS011;15041;45.334;5.622;2023-11-21T09:20:27;8.67;;;6.27;;
27622;SDS011;15041;45.334;5.622;2023-11-21T09:22:54;8.70;;;5.60;;
27622;SDS011;15041;45.334;5.622;2023-11-21T09:25:21;8.07;;;5.77;;
27622;SDS011;15041;45.334;5.622;2023-11-21T09:27:49;10.57;;;6.10;;
27622;SDS011;15041;45.334;5.622;2023-11-21T09:30:16;7.50;;;5.17;;
27622;SDS011;15041;45.334;5.622;2023-11-21T09:32:45;7.87;;;6.00;;
27622;SDS011;15041;45.334;5.622;2023-11-21T09:35:15;7.70;;;5.70;;
27622;SDS011;15041;45.334;5.622;2023-11-21T09:37:43;8.27;;;5.73;;
27622;SDS011;15041;45.334;5.622;2023-11-21T09:40:11;12.83;;;5.73;;
27622;SDS011;15041;45.334;5.622;2023-11-21T09:42:43;9.20;;;5.87;;
27622;SDS011;15041;45.334;5.622;2023-11-21T09:45:17;8.87;;;5.90;;
27622;SDS011;15041;45.334;5.622;2023-11-21T09:47:51;8.17;;;5.53;;
27622;SDS011;15041;45.334;5.622;2023-11-21T09:50:23;12.40;;;5.83;;
27622;SDS011;15041;45.334;5.622;2023-11-21T09:52:57;6.50;;;4.70;;
27622;SDS011;15041;45.334;5.622;2023-11-21T09:55:30;11.03;;;5.83;;
27622;SDS011;15041;45.334;5.622;2023-11-21T09:58:02;7.20;;;5.30;;
27622;SDS011;15041;45.334;5.622;2023-11-21T10:00:33;6.60;;;4.97;;
27622;SDS011;15041;45.334;5.622;2023-11-21T10:03:00;9.07;;;5.73;;
27622;SDS011;15041;45.334;5.622;2023-11-21T10:05:30;10.40;;;5.70;;
27622;SDS011;15041;45.334;5.622;2023-11-21T10:07:59;8.00;;;4.80;;
27622;SDS011;15041;45.334;5.622;2023-11-21T10:10:27;7.07;;;4.60;;
27622;SDS011;15041;45.334;5.622;2023-11-21T10:12:57;7.73;;;5.40;;
27622;SDS011;15041;45.334;5.622;2023-11-21T10:15:28;9.57;;;4.30;;
27622;SDS011;15041;45.334;5.622;2023-11-21T10:17:59;9.83;;;4.67;;
27622;SDS011;15041;45.334;5.622;2023-11-21T10:20:32;8.87;;;4.50;;
27622;SDS011;15041;45.334;5.622;2023-11-21T10:23:03;6.03;;;4.30;;
27622;SDS011;15041;45.334;5.622;2023-11-21T10:25:32;7.50;;;4.47;;
27622;SDS011;15041;45.334;5.622;2023-11-21T10:28:02;5.07;;;4.37;;
27622;SDS011;15041;45.334;5.622;2023-11-21T10:30:32;8.47;;;4.47;;
27622;SDS011;15041;45.334;5.622;2023-11-21T10:33:02;11.77;;;6.33;;
27622;SDS011;15041;45.334;5.622;2023-11-21T10:35:44;6.87;;;4.67;;
27622;SDS011;15041;45.334;5.622;2023-11-21T10:38:16;10.50;;;4.63;;
27622;SDS011;15041;45.334;5.622;2023-11-21T10:40:44;5.10;;;4.17;;
27622;SDS011;15041;45.334;5.622;2023-11-21T10:43:12;6.80;;;4.37;;
27622;SDS011;15041;45.334;5.622;2023-11-21T10:45:41;7.83;;;4.50;;
27622;SDS011;15041;45.334;5.622;2023-11-21T10:48:09;8.17;;;4.30;;
27622;SDS011;15041;45.334;5.622;2023-11-21T10:50:37;5.63;;;3.87;;
27622;SDS011;15041;45.334;5.622;2023-11-21T10:53:06;10.33;;;4.30;;
27622;SDS011;15041;45.334;5.622;2023-11-21T10:55:33;6.37;;;3.60;;
27622;SDS011;15041;45.334;5.622;2023-11-21T10:58:01;5.50;;;4.13;;
27622;SDS011;15041;45.334;5.622;2023-11-21T11:00:30;8.07;;;4.00;;
27622;SDS011;15041;45.334;5.622;2023-11-21T11:02:58;7.50;;;3.90;;
27622;SDS011;15041;45.334;5.622;2023-11-21T11:05:27;5.13;;;3.37;;
27622;SDS011;15041;45.334;5.622;2023-11-21T11:07:57;5.73;;;3.57;;
27622;SDS011;15041;45.334;5.622;2023-11-21T11:10:30;6.27;;;3.37;;
27622;SDS011;15041;45.334;5.622;2023-11-21T11:12:57;4.93;;;3.37;;
27622;SDS011;15041;45.334;5.622;2023-11-21T11:15:26;5.80;;;2.80;;
27622;SDS011;15041;45.334;5.622;2023-11-21T11:17:54;4.73;;;2.93;;
27622;SDS011;15041;45.334;5.622;2023-11-21T11:20:23;5.27;;;3.00;;
27622;SDS011;15041;45.334;5.622;2023-11-21T11:22:59;7.03;;;3.30;;
27622;SDS011;15041;45.334;5.622;2023-11-21T11:25:45;3.23;;;2.83;;
27622;SDS011;15041;45.334;5.622;2023-11-21T11:28:20;4.23;;;3.00;;
27622;SDS011;15041;45.334;5.622;2023-11-21T11:30:57;4.37;;;2.93;;
27622;SDS011;15041;45.334;5.622;2023-11-21T11:33:33;3.87;;;3.23;;
27622;SDS011;15041;45.334;5.622;2023-11-21T11:36:06;7.40;;;3.00;;
27622;SDS011;15041;45.334;5.622;2023-11-21T11:38:37;9.23;;;3.40;;
27622;SDS011;15041;45.334;5.622;2023-11-21T11:41:06;3.97;;;3.17;;
27622;SDS011;15041;45.334;5.622;2023-11-21T11:43:34;6.20;;;3.23;;
27622;SDS011;15041;45.334;5.622;2023-11-21T11:46:09;4.33;;;2.93;;
27622;SDS011;15041;45.334;5.622;2023-11-21T11:48:38;4.27;;;3.30;;
27622;SDS011;15041;45.334;5.622;2023-11-21T11:51:09;5.33;;;2.60;;
27622;SDS011;15041;45.334;5.622;2023-11-21T11:53:40;10.87;;;3.80;;
27622;SDS011;15041;45.334;5.622;2023-11-21T11:56:25;4.40;;;3.37;;
27622;SDS011;15041;45.334;5.622;2023-11-21T11:58:56;4.87;;;3.20;;
27622;SDS011;15041;45.334;5.622;2023-11-21T12:01:26;7.40;;;3.00;;
27622;SDS011;15041;45.334;5.622;2023-11-21T12:06:56;4.20;;;3.17;;
27622;SDS011;15041;45.334;5.622;2023-11-21T12:09:28;5.97;;;3.20;;
27622;SDS011;15041;45.334;5.622;2023-11-21T12:11:58;8.40;;;3.23;;
27622;SDS011;15041;45.334;5.622;2023-11-21T12:14:25;4.23;;;2.77;;
27622;SDS011;15041;45.334;5.622;2023-11-21T12:16:52;3.17;;;2.63;;
27622;SDS011;15041;45.334;5.622;2023-11-21T12:19:20;5.43;;;2.73;;
27622;SDS011;15041;45.334;5.622;2023-11-21T12:21:48;4.47;;;2.60;;
27622;SDS011;15041;45.334;5.622;2023-11-21T12:24:16;3.50;;;2.70;;
27622;SDS011;15041;45.334;5.622;2023-11-21T12:26:44;5.93;;;2.30;;
27622;SDS011;15041;45.334;5.622;2023-11-21T12:29:14;5.53;;;2.97;;
27622;SDS011;15041;45.334;5.622;2023-11-21T12:31:42;3.33;;;2.17;;
27622;SDS011;15041;45.334;5.622;2023-11-21T12:34:09;4.13;;;2.67;;
27622;SDS011;15041;45.334;5.622;2023-11-21T12:36:37;3.43;;;2.27;;
27622;SDS011;15041;45.334;5.622;2023-11-21T12:39:05;3.60;;;2.70;;
27622;SDS011;15041;45.334;5.622;2023-11-21T12:41:34;8.13;;;3.60;;
27622;SDS011;15041;45.334;5.622;2023-11-21T12:44:01;10.73;;;3.37;;
27622;SDS011;15041;45.334;5.622;2023-11-21T12:46:30;8.37;;;3.20;;
27622;SDS011;15041;45.334;5.622;2023-11-21T12:48:59;3.90;;;2.80;;
27622;SDS011;15041;45.334;5.622;2023-11-21T12:51:27;5.30;;;3.03;;
27622;SDS011;15041;45.334;5.622;2023-11-21T12:53:55;5.03;;;3.10;;
27622;SDS011;15041;45.334;5.622;2023-11-21T12:56:23;9.47;;;5.93;;
27622;SDS011;15041;45.334;5.622;2023-11-21T12:58:53;4.43;;;2.83;;
27622;SDS011;15041;45.334;5.622;2023-11-21T13:01:25;5.03;;;3.47;;
27622;SDS011;15041;45.334;5.622;2023-11-21T13:03:56;2.23;;;2.00;;
27622;SDS011;15041;45.334;5.622;2023-11-21T13:06:25;24.97;;;14.87;;
27622;SDS011;15041;45.334;5.622;2023-11-21T13:08:53;18.73;;;11.27;;
27622;SDS011;15041;45.334;5.622;2023-11-21T13:11:22;5.47;;;4.47;;
27622;SDS011;15041;45.334;5.622;2023-11-21T13:13:51;3.13;;;2.93;;
27622;SDS011;15041;45.334;5.622;2023-11-21T13:16:19;2.00;;;1.77;;
27622;SDS011;15041;45.334;5.622;2023-11-21T13:18:47;1.50;;;1.40;;
27622;SDS011;15041;45.334;5.622;2023-11-21T13:21:15;1.50;;;1.40;;
27622;SDS011;15041;45.334;5.622;2023-11-21T13:23:43;1.70;;;1.60;;
27622;SDS011;15041;45.334;5.622;2023-11-21T13:26:11;1.83;;;1.67;;
27622;SDS011;15041;45.334;5.622;2023-11-21T13:28:40;1.77;;;1.67;;
27622;SDS011;15041;45.334;5.622;2023-11-21T13:31:11;2.10;;;2.00;;
27622;SDS011;15041;45.334;5.622;2023-11-21T13:33:46;3.27;;;2.10;;
27622;SDS011;15041;45.334;5.622;2023-11-21T13:36:22;2.30;;;2.20;;
27622;SDS011;15041;45.334;5.622;2023-11-21T13:38:49;3.50;;;1.83;;
27622;SDS011;15041;45.334;5.622;2023-11-21T13:41:17;2.27;;;2.03;;
27622;SDS011;15041;45.334;5.622;2023-11-21T13:43:45;2.87;;;1.90;;
27622;SDS011;15041;45.334;5.622;2023-11-21T13:46:20;2.10;;;1.90;;
27622;SDS011;15041;45.334;5.622;2023-11-21T13:48:48;10.87;;;5.17;;
27622;SDS011;15041;45.334;5.622;2023-11-21T13:51:22;5.13;;;3.37;;
27622;SDS011;15041;45.334;5.622;2023-11-21T13:53:58;2.23;;;2.03;;
27622;SDS011;15041;45.334;5.622;2023-11-21T13:56:26;2.37;;;2.23;;
27622;SDS011;15041;45.334;5.622;2023-11-21T13:58:54;2.37;;;2.17;;
27622;SDS011;15041;45.334;5.622;2023-11-21T14:01:23;2.17;;;2.00;;
27622;SDS011;15041;45.334;5.622;2023-11-21T14:04:13;2.90;;;2.60;;
27622;SDS011;15041;45.334;5.622;2023-11-21T14:06:47;2.77;;;2.53;;
27622;SDS011;15041;45.334;5.622;2023-11-21T14:09:20;3.17;;;2.80;;
27622;SDS011;15041;45.334;5.622;2023-11-21T14:11:50;3.17;;;2.93;;
27622;SDS011;15041;45.334;5.622;2023-11-21T14:14:18;2.80;;;2.60;;
27622;SDS011;15041;45.334;5.622;2023-11-21T14:16:49;2.73;;;2.40;;
27622;SDS011;15041;45.334;5.622;2023-11-21T14:19:16;3.57;;;2.70;;
27622;SDS011;15041;45.334;5.622;2023-11-21T14:21:44;4.77;;;3.13;;
27622;SDS011;15041;45.334;5.622;2023-11-21T14:24:14;2.60;;;2.40;;
27622;SDS011;15041;45.334;5.622;2023-11-21T14:26:43;4.23;;;2.20;;
27622;SDS011;15041;45.334;5.622;2023-11-21T14:29:12;2.53;;;2.30;;
27622;SDS011;15041;45.334;5.622;2023-11-21T14:31:41;2.50;;;2.30;;
27622;SDS011;15041;45.334;5.622;2023-11-21T14:34:08;2.93;;;2.30;;
27622;SDS011;15041;45.334;5.622;2023-11-21T14:36:37;2.23;;;2.07;;
27622;SDS011;15041;45.334;5.622;2023-11-21T14:39:05;2.60;;;2.40;;
27622;SDS011;15041;45.334;5.622;2023-11-21T14:41:37;2.97;;;2.43;;
27622;SDS011;15041;45.334;5.622;2023-11-21T14:44:05;7.07;;;2.43;;
27622;SDS011;15041;45.334;5.622;2023-11-21T14:46:37;4.17;;;2.67;;
27622;SDS011;15041;45.334;5.622;2023-11-21T14:49:05;5.80;;;2.90;;
27622;SDS011;15041;45.334;5.622;2023-11-21T14:51:44;3.80;;;2.67;;
27622;SDS011;15041;45.334;5.622;2023-11-21T14:54:26;2.90;;;2.60;;
27622;SDS011;15041;45.334;5.622;2023-11-21T14:57:08;3.87;;;2.97;;